createdAt,value
2018-07-08T00:00:24.257Z,1022.64
2018-07-08T00:01:24.284Z,1022.69
2018-07-08T00:02:24.282Z,1022.64
2018-07-08T00:03:24.280Z,1022.65
2018-07-08T00:04:24.327Z,1022.66
2018-07-08T00:05:24.272Z,1022.66
2018-07-08T00:06:24.287Z,1022.71
2018-07-08T00:07:24.370Z,1022.69
2018-07-08T00:08:24.272Z,1022.71
2018-07-08T00:09:24.389Z,1022.71
2018-07-08T00:10:24.333Z,1022.74
2018-07-08T00:11:24.300Z,1022.73
2018-07-08T00:12:24.250Z,1022.74
2018-07-08T00:13:24.308Z,1022.72
2018-07-08T00:14:24.248Z,1022.71
2018-07-08T00:15:24.268Z,1022.72
2018-07-08T00:16:24.354Z,1022.72
2018-07-08T00:17:24.239Z,1022.71
2018-07-08T00:18:24.287Z,1022.71
2018-07-08T00:19:24.244Z,1022.71
2018-07-08T00:20:24.355Z,1022.72
2018-07-08T00:21:24.479Z,1022.72
2018-07-08T00:22:24.239Z,1022.72
2018-07-08T00:23:24.221Z,1022.72
2018-07-08T00:24:24.301Z,1022.73
2018-07-08T00:25:24.325Z,1022.72
2018-07-08T00:26:24.250Z,1022.74
2018-07-08T00:27:24.324Z,1022.75
2018-07-08T00:28:24.260Z,1022.74
2018-07-08T00:29:24.427Z,1022.74
2018-07-08T00:30:24.268Z,1022.75
2018-07-08T00:31:24.251Z,1022.75
2018-07-08T00:32:24.235Z,1022.77
2018-07-08T00:33:24.267Z,1022.78
2018-07-08T00:34:24.245Z,1022.74
2018-07-08T00:35:24.254Z,1022.76
2018-07-08T00:36:24.264Z,1022.77
2018-07-08T00:37:24.257Z,1022.73
2018-07-08T00:38:24.248Z,1022.75
2018-07-08T00:39:24.270Z,1022.74
2018-07-08T00:40:24.294Z,1022.72
2018-07-08T00:41:24.259Z,1022.74
2018-07-08T00:42:24.244Z,1022.72
2018-07-08T00:43:24.232Z,1022.72
2018-07-08T00:44:24.258Z,1022.73
2018-07-08T00:45:24.246Z,1022.74
2018-07-08T00:46:24.253Z,1022.71
2018-07-08T00:47:24.268Z,1022.74
2018-07-08T00:48:24.252Z,1022.7
2018-07-08T00:49:24.253Z,1022.7
2018-07-08T00:50:24.251Z,1022.71
2018-07-08T00:51:24.332Z,1022.74
2018-07-08T00:52:24.261Z,1022.7
2018-07-08T00:53:24.235Z,1022.72
2018-07-08T00:54:24.231Z,1022.72
2018-07-08T00:55:24.235Z,1022.74
2018-07-08T00:56:24.241Z,1022.75
2018-07-08T00:57:24.344Z,1022.78
2018-07-08T00:58:24.250Z,1022.79
2018-07-08T00:59:24.249Z,1022.78
2018-07-08T01:00:24.387Z,1022.82
2018-07-08T01:01:25.015Z,1022.83
2018-07-08T01:02:24.386Z,1022.81
2018-07-08T01:03:24.233Z,1022.84
2018-07-08T01:04:24.238Z,1022.85
2018-07-08T01:05:24.298Z,1022.88
2018-07-08T01:06:24.251Z,1022.88
2018-07-08T01:07:24.450Z,1022.88
2018-07-08T01:08:24.246Z,1022.89
2018-07-08T01:09:24.251Z,1022.88
2018-07-08T01:10:24.235Z,1022.89
2018-07-08T01:11:24.299Z,1022.86
2018-07-08T01:12:24.239Z,1022.91
2018-07-08T01:13:24.339Z,1022.9
2018-07-08T01:14:24.217Z,1022.91
2018-07-08T01:15:24.260Z,1022.9
2018-07-08T01:16:24.254Z,1022.9
2018-07-08T01:17:24.292Z,1022.87
2018-07-08T01:18:24.253Z,1022.88
2018-07-08T01:19:24.220Z,1022.88
2018-07-08T01:20:24.216Z,1022.9
2018-07-08T01:21:24.252Z,1022.89
2018-07-08T01:22:24.251Z,1022.88
2018-07-08T01:23:24.217Z,1022.92
2018-07-08T01:24:24.226Z,1022.91
2018-07-08T01:25:24.437Z,1022.9
2018-07-08T01:26:24.255Z,1022.98
2018-07-08T01:27:24.338Z,1022.96
2018-07-08T01:28:24.258Z,1022.99
2018-07-08T01:29:24.269Z,1022.97
2018-07-08T01:30:24.300Z,1023
2018-07-08T01:31:24.287Z,1023
2018-07-08T01:32:24.225Z,1023
2018-07-08T01:33:24.588Z,1023.01
2018-07-08T01:34:24.232Z,1022.99
2018-07-08T01:35:24.414Z,1023.01
2018-07-08T01:36:24.218Z,1022.99
2018-07-08T01:37:24.223Z,1022.94
2018-07-08T01:38:24.437Z,1022.99
2018-07-08T01:39:24.238Z,1023.03
2018-07-08T01:40:24.233Z,1022.95
2018-07-08T01:41:24.269Z,1023
2018-07-08T01:42:24.236Z,1022.99
2018-07-08T01:43:24.213Z,1022.98
2018-07-08T01:44:24.351Z,1023
2018-07-08T01:45:24.226Z,1023.01
2018-07-08T01:46:24.214Z,1023.02
2018-07-08T01:47:24.242Z,1022.99
2018-07-08T01:48:24.235Z,1023.01
2018-07-08T01:49:24.234Z,1022.99
2018-07-08T01:50:24.270Z,1022.95
2018-07-08T01:51:24.220Z,1022.94
2018-07-08T01:52:24.222Z,1022.93
2018-07-08T01:53:24.427Z,1022.92
2018-07-08T01:54:24.229Z,1022.93
2018-07-08T01:55:24.227Z,1022.92
2018-07-08T01:56:24.222Z,1022.95
2018-07-08T01:57:24.210Z,1022.92
2018-07-08T01:58:24.222Z,1022.98
2018-07-08T01:59:24.249Z,1022.95
2018-07-08T02:00:24.237Z,1022.96
2018-07-08T02:01:24.268Z,1022.97
2018-07-08T02:02:24.208Z,1022.96
2018-07-08T02:03:24.252Z,1022.99
2018-07-08T02:04:24.295Z,1023
2018-07-08T02:05:24.237Z,1022.96
2018-07-08T02:06:24.219Z,1023
2018-07-08T02:07:24.247Z,1023.01
2018-07-08T02:08:24.216Z,1023.02
2018-07-08T02:09:24.241Z,1023
2018-07-08T02:10:24.271Z,1023
2018-07-08T02:11:24.418Z,1023.02
2018-07-08T02:12:24.576Z,1023.04
2018-07-08T02:13:24.217Z,1023
2018-07-08T02:14:24.208Z,1023.02
2018-07-08T02:15:24.270Z,1023.01
2018-07-08T02:16:24.224Z,1023.03
2018-07-08T02:17:24.493Z,1023.01
2018-07-08T02:18:24.222Z,1023.01
2018-07-08T02:19:24.230Z,1023.06
2018-07-08T02:20:24.251Z,1023.04
2018-07-08T02:21:24.304Z,1023.03
2018-07-08T02:22:24.225Z,1023.07
2018-07-08T02:23:24.209Z,1023.06
2018-07-08T02:24:24.260Z,1023.08
2018-07-08T02:25:24.451Z,1023.09
2018-07-08T02:26:24.430Z,1023.09
2018-07-08T02:27:24.226Z,1023.08
2018-07-08T02:28:24.472Z,1023.09
2018-07-08T02:29:24.254Z,1023.12
2018-07-08T02:30:24.284Z,1023.13
2018-07-08T02:31:24.260Z,1023.14
2018-07-08T02:32:24.270Z,1023.13
2018-07-08T02:33:24.202Z,1023.16
2018-07-08T02:34:24.316Z,1023.14
2018-07-08T02:35:24.218Z,1023.19
2018-07-08T02:36:24.227Z,1023.16
2018-07-08T02:37:24.220Z,1023.18
2018-07-08T02:38:24.273Z,1023.18
2018-07-08T02:39:24.208Z,1023.24
2018-07-08T02:40:24.213Z,1023.16
2018-07-08T02:41:24.264Z,1023.21
2018-07-08T02:42:24.190Z,1023.23
2018-07-08T02:43:24.272Z,1023.2
2018-07-08T02:44:24.240Z,1023.27
2018-07-08T02:45:24.277Z,1023.21
2018-07-08T02:46:24.220Z,1023.2
2018-07-08T02:47:24.200Z,1023.27
2018-07-08T02:48:24.196Z,1023.27
2018-07-08T02:49:24.212Z,1023.24
2018-07-08T02:50:24.254Z,1023.23
2018-07-08T02:51:24.235Z,1023.23
2018-07-08T02:52:24.326Z,1023.23
2018-07-08T02:53:26.478Z,1023.24
2018-07-08T02:54:24.207Z,1023.28
2018-07-08T02:55:24.272Z,1023.25
2018-07-08T02:56:24.445Z,1023.24
2018-07-08T02:57:24.189Z,1023.19
2018-07-08T02:58:24.198Z,1023.22
2018-07-08T02:59:24.191Z,1023.2
2018-07-08T03:00:24.218Z,1023.21
2018-07-08T03:01:24.213Z,1023.21
2018-07-08T03:02:24.201Z,1023.23
2018-07-08T03:03:24.189Z,1023.22
2018-07-08T03:04:24.255Z,1023.23
2018-07-08T03:05:24.234Z,1023.29
2018-07-08T03:06:24.214Z,1023.25
2018-07-08T03:07:24.200Z,1023.25
2018-07-08T03:08:24.181Z,1023.22
2018-07-08T03:09:24.219Z,1023.25
2018-07-08T03:10:24.245Z,1023.27
2018-07-08T03:11:24.203Z,1023.23
2018-07-08T03:12:24.239Z,1023.28
2018-07-08T03:13:24.224Z,1023.27
2018-07-08T03:14:24.196Z,1023.33
2018-07-08T03:15:24.200Z,1023.29
2018-07-08T03:16:24.225Z,1023.32
2018-07-08T03:17:24.247Z,1023.3
2018-07-08T03:18:24.192Z,1023.28
2018-07-08T03:19:24.208Z,1023.3
2018-07-08T03:20:24.187Z,1023.3
2018-07-08T03:21:24.216Z,1023.31
2018-07-08T03:22:24.176Z,1023.31
2018-07-08T03:23:24.233Z,1023.26
2018-07-08T03:24:24.250Z,1023.26
2018-07-08T03:25:24.177Z,1023.22
2018-07-08T03:26:24.242Z,1023.21
2018-07-08T03:27:24.189Z,1023.22
2018-07-08T03:28:24.223Z,1023.23
2018-07-08T03:29:24.511Z,1023.22
2018-07-08T03:30:24.225Z,1023.2
2018-07-08T03:31:24.255Z,1023.23
2018-07-08T03:32:24.208Z,1023.2
2018-07-08T03:33:24.346Z,1023.21
2018-07-08T03:34:24.214Z,1023.24
2018-07-08T03:35:24.196Z,1023.24
2018-07-08T03:36:24.196Z,1023.22
2018-07-08T03:37:24.205Z,1023.21
2018-07-08T03:38:24.229Z,1023.24
2018-07-08T03:39:24.219Z,1023.22
2018-07-08T03:40:24.471Z,1023.21
2018-07-08T03:41:24.206Z,1023.19
2018-07-08T03:42:24.193Z,1023.19
2018-07-08T03:43:24.206Z,1023.2
2018-07-08T03:44:24.292Z,1023.18
2018-07-08T03:45:24.325Z,1023.22
2018-07-08T03:46:24.229Z,1023.21
2018-07-08T03:47:24.273Z,1023.21
2018-07-08T03:48:24.204Z,1023.19
2018-07-08T03:49:24.230Z,1023.2
2018-07-08T03:50:24.255Z,1023.18
2018-07-08T03:51:24.250Z,1023.24
2018-07-08T03:52:24.247Z,1023.25
2018-07-08T03:53:24.214Z,1023.28
2018-07-08T03:54:24.218Z,1023.31
2018-07-08T03:55:24.191Z,1023.31
2018-07-08T03:56:24.232Z,1023.33
2018-07-08T03:57:24.273Z,1023.34
2018-07-08T03:58:24.194Z,1023.33
2018-07-08T03:59:24.239Z,1023.31
2018-07-08T04:00:24.200Z,1023.3
2018-07-08T04:01:24.242Z,1023.33
2018-07-08T04:02:24.185Z,1023.32
2018-07-08T04:03:24.311Z,1023.32
2018-07-08T04:04:24.187Z,1023.33
2018-07-08T04:05:24.165Z,1023.34
2018-07-08T04:06:24.350Z,1023.31
2018-07-08T04:07:24.247Z,1023.32
2018-07-08T04:08:24.208Z,1023.29
2018-07-08T04:09:24.220Z,1023.32
2018-07-08T04:10:24.180Z,1023.35
2018-07-08T04:11:24.248Z,1023.3
2018-07-08T04:12:24.213Z,1023.34
2018-07-08T04:13:24.221Z,1023.3
2018-07-08T04:14:24.258Z,1023.31
2018-07-08T04:15:24.169Z,1023.35
2018-07-08T04:16:24.179Z,1023.33
2018-07-08T04:17:24.203Z,1023.31
2018-07-08T04:18:24.182Z,1023.34
2018-07-08T04:19:24.196Z,1023.33
2018-07-08T04:20:24.177Z,1023.33
2018-07-08T04:21:24.212Z,1023.3
2018-07-08T04:22:24.228Z,1023.29
2018-07-08T04:23:24.175Z,1023.3
2018-07-08T04:24:24.166Z,1023.34
2018-07-08T04:25:24.257Z,1023.31
2018-07-08T04:26:24.206Z,1023.33
2018-07-08T04:27:24.188Z,1023.31
2018-07-08T04:28:24.214Z,1023.32
2018-07-08T04:29:24.189Z,1023.34
2018-07-08T04:30:24.283Z,1023.33
2018-07-08T04:31:24.164Z,1023.35
2018-07-08T04:32:24.165Z,1023.35
2018-07-08T04:33:24.179Z,1023.36
2018-07-08T04:34:24.150Z,1023.33
2018-07-08T04:35:24.169Z,1023.37
2018-07-08T04:36:24.165Z,1023.36
2018-07-08T04:37:24.156Z,1023.4
2018-07-08T04:38:24.160Z,1023.39
2018-07-08T04:39:24.198Z,1023.39
2018-07-08T04:40:24.175Z,1023.41
2018-07-08T04:41:24.330Z,1023.4
2018-07-08T04:42:24.175Z,1023.42
2018-07-08T04:43:24.197Z,1023.41
2018-07-08T04:44:24.184Z,1023.42
2018-07-08T04:45:24.159Z,1023.39
2018-07-08T04:46:24.234Z,1023.42
2018-07-08T04:47:24.168Z,1023.41
2018-07-08T04:48:24.169Z,1023.44
2018-07-08T04:49:24.220Z,1023.45
2018-07-08T04:50:24.149Z,1023.48
2018-07-08T04:51:24.165Z,1023.48
2018-07-08T04:52:24.156Z,1023.51
2018-07-08T04:53:24.325Z,1023.49
2018-07-08T04:54:24.270Z,1023.51
2018-07-08T04:55:24.149Z,1023.53
2018-07-08T04:56:24.215Z,1023.53
2018-07-08T04:57:24.170Z,1023.53
2018-07-08T04:58:24.162Z,1023.56
2018-07-08T04:59:24.240Z,1023.53
2018-07-08T05:00:24.275Z,1023.49
2018-07-08T05:01:24.225Z,1023.57
2018-07-08T05:02:24.202Z,1023.53
2018-07-08T05:03:24.190Z,1023.56
2018-07-08T05:04:24.358Z,1023.56
2018-07-08T05:05:24.180Z,1023.59
2018-07-08T05:06:24.347Z,1023.62
2018-07-08T05:07:24.160Z,1023.61
2018-07-08T05:08:24.156Z,1023.62
2018-07-08T05:09:24.151Z,1023.62
2018-07-08T05:10:24.308Z,1023.6
2018-07-08T05:11:24.160Z,1023.58
2018-07-08T05:12:24.150Z,1023.6
2018-07-08T05:13:24.160Z,1023.56
2018-07-08T05:14:24.167Z,1023.58
2018-07-08T05:15:24.180Z,1023.56
2018-07-08T05:16:24.200Z,1023.54
2018-07-08T05:17:24.186Z,1023.56
2018-07-08T05:18:24.184Z,1023.54
2018-07-08T05:19:24.233Z,1023.57
2018-07-08T05:20:24.264Z,1023.55
2018-07-08T05:21:24.215Z,1023.6
2018-07-08T05:22:24.163Z,1023.59
2018-07-08T05:23:24.189Z,1023.58
2018-07-08T05:24:24.168Z,1023.59
2018-07-08T05:25:24.445Z,1023.59
2018-07-08T05:26:24.171Z,1023.65
2018-07-08T05:27:24.177Z,1023.63
2018-07-08T05:28:24.122Z,1023.62
2018-07-08T05:29:24.179Z,1023.61
2018-07-08T05:30:24.176Z,1023.61
2018-07-08T05:31:24.193Z,1023.61
2018-07-08T05:32:24.927Z,1023.6
2018-07-08T05:33:24.258Z,1023.62
2018-07-08T05:34:24.162Z,1023.68
2018-07-08T05:35:24.393Z,1023.67
2018-07-08T05:36:24.141Z,1023.73
2018-07-08T05:37:24.159Z,1023.72
2018-07-08T05:38:24.130Z,1023.7
2018-07-08T05:39:24.177Z,1023.71
2018-07-08T05:40:24.173Z,1023.74
2018-07-08T05:41:24.178Z,1023.75
2018-07-08T05:42:24.165Z,1023.78
2018-07-08T05:43:24.124Z,1023.74
2018-07-08T05:44:24.176Z,1023.74
2018-07-08T05:45:24.182Z,1023.78
2018-07-08T05:46:24.153Z,1023.75
2018-07-08T05:47:24.156Z,1023.71
2018-07-08T05:48:24.199Z,1023.81
2018-07-08T05:49:24.134Z,1023.77
2018-07-08T05:50:24.259Z,1023.83
2018-07-08T05:51:24.324Z,1023.78
2018-07-08T05:52:24.130Z,1023.82
2018-07-08T05:53:24.151Z,1023.83
2018-07-08T05:54:24.146Z,1023.79
2018-07-08T05:55:24.184Z,1023.82
2018-07-08T05:56:24.118Z,1023.81
2018-07-08T05:57:24.123Z,1023.81
2018-07-08T05:58:24.158Z,1023.82
2018-07-08T05:59:24.166Z,1023.82
2018-07-08T06:00:24.146Z,1023.85
2018-07-08T06:01:24.291Z,1023.87
2018-07-08T06:02:24.152Z,1023.87
2018-07-08T06:03:24.134Z,1023.87
2018-07-08T06:04:24.160Z,1023.87
2018-07-08T06:05:24.181Z,1023.9
2018-07-08T06:06:24.145Z,1023.87
2018-07-08T06:07:24.134Z,1023.89
2018-07-08T06:08:24.238Z,1023.93
2018-07-08T06:09:24.265Z,1023.88
2018-07-08T06:10:24.490Z,1023.91
2018-07-08T06:11:24.152Z,1023.91
2018-07-08T06:12:24.138Z,1023.9
2018-07-08T06:13:24.148Z,1023.91
2018-07-08T06:14:24.129Z,1023.89
2018-07-08T06:15:24.213Z,1023.9
2018-07-08T06:16:24.230Z,1023.85
2018-07-08T06:17:24.122Z,1023.85
2018-07-08T06:18:24.133Z,1023.86
2018-07-08T06:19:24.146Z,1023.86
2018-07-08T06:20:24.202Z,1023.84
2018-07-08T06:21:24.119Z,1023.86
2018-07-08T06:22:24.313Z,1023.81
2018-07-08T06:23:24.298Z,1023.81
2018-07-08T06:24:24.131Z,1023.87
2018-07-08T06:25:24.109Z,1023.84
2018-07-08T06:26:24.218Z,1023.79
2018-07-08T06:27:24.126Z,1023.83
2018-07-08T06:28:24.153Z,1023.8
2018-07-08T06:29:24.221Z,1023.79
2018-07-08T06:30:24.123Z,1023.8
2018-07-08T06:31:24.149Z,1023.78
2018-07-08T06:32:24.118Z,1023.84
2018-07-08T06:33:24.141Z,1023.81
2018-07-08T06:34:24.134Z,1023.8
2018-07-08T06:35:24.313Z,1023.84
2018-07-08T06:36:24.517Z,1023.76
2018-07-08T06:37:24.149Z,1023.77
2018-07-08T06:38:24.128Z,1023.76
2018-07-08T06:39:24.148Z,1023.79
2018-07-08T06:40:24.159Z,1023.77
2018-07-08T06:41:24.120Z,1023.76
2018-07-08T06:42:24.131Z,1023.75
2018-07-08T06:43:24.206Z,1023.8
2018-07-08T06:44:24.125Z,1023.77
2018-07-08T06:45:24.134Z,1023.79
2018-07-08T06:46:24.372Z,1023.76
2018-07-08T06:47:24.125Z,1023.77
2018-07-08T06:48:24.129Z,1023.78
2018-07-08T06:49:24.105Z,1023.75
2018-07-08T06:50:24.232Z,1023.75
2018-07-08T06:51:24.135Z,1023.71
2018-07-08T06:52:24.133Z,1023.69
2018-07-08T06:53:24.165Z,1023.7
2018-07-08T06:54:24.132Z,1023.73
2018-07-08T06:55:24.109Z,1023.68
2018-07-08T06:56:24.128Z,1023.66
2018-07-08T06:57:24.146Z,1023.67
2018-07-08T06:58:24.120Z,1023.7
2018-07-08T06:59:24.089Z,1023.65
2018-07-08T07:00:24.114Z,1023.68
2018-07-08T07:01:24.118Z,1023.64
2018-07-08T07:02:24.111Z,1023.71
2018-07-08T07:03:24.108Z,1023.69
2018-07-08T07:04:24.178Z,1023.66
2018-07-08T07:05:24.133Z,1023.67
2018-07-08T07:06:24.427Z,1023.68
2018-07-08T07:07:24.116Z,1023.69
2018-07-08T07:08:24.125Z,1023.7
2018-07-08T07:09:24.106Z,1023.75
2018-07-08T07:10:24.114Z,1023.69
2018-07-08T07:11:24.175Z,1023.69
2018-07-08T07:12:24.105Z,1023.65
2018-07-08T07:13:24.119Z,1023.68
2018-07-08T07:14:24.136Z,1023.67
2018-07-08T07:15:24.112Z,1023.66
2018-07-08T07:16:24.397Z,1023.66
2018-07-08T07:17:24.206Z,1023.68
2018-07-08T07:18:24.153Z,1023.66
2018-07-08T07:19:24.115Z,1023.65
2018-07-08T07:20:24.133Z,1023.66
2018-07-08T07:21:24.132Z,1023.67
2018-07-08T07:22:24.161Z,1023.62
2018-07-08T07:23:24.197Z,1023.63
2018-07-08T07:24:24.193Z,1023.6
2018-07-08T07:25:24.110Z,1023.57
2018-07-08T07:26:24.296Z,1023.55
2018-07-08T07:27:24.103Z,1023.51
2018-07-08T07:28:24.263Z,1023.53
2018-07-08T07:29:24.138Z,1023.59
2018-07-08T07:30:24.125Z,1023.55
2018-07-08T07:31:24.149Z,1023.54
2018-07-08T07:32:24.182Z,1023.53
2018-07-08T07:33:24.127Z,1023.52
2018-07-08T07:34:24.103Z,1023.55
2018-07-08T07:35:24.132Z,1023.5
2018-07-08T07:36:24.182Z,1023.5
2018-07-08T07:37:24.237Z,1023.53
2018-07-08T07:38:24.238Z,1023.51
2018-07-08T07:39:24.300Z,1023.51
2018-07-08T07:40:24.103Z,1023.52
2018-07-08T07:41:24.256Z,1023.5
2018-07-08T07:42:24.095Z,1023.52
2018-07-08T07:43:24.381Z,1023.51
2018-07-08T07:44:24.217Z,1023.51
2018-07-08T07:45:24.237Z,1023.49
2018-07-08T07:46:24.397Z,1023.49
2018-07-08T07:47:24.311Z,1023.51
2018-07-08T07:48:24.306Z,1023.53
2018-07-08T07:49:24.412Z,1023.57
2018-07-08T07:50:25.244Z,1023.52
2018-07-08T07:51:24.088Z,1023.5
2018-07-08T07:52:24.235Z,1023.53
2018-07-08T07:53:24.136Z,1023.52
2018-07-08T07:54:24.258Z,1023.49
2018-07-08T07:55:24.239Z,1023.45
2018-07-08T07:56:24.259Z,1023.49
2018-07-08T07:57:24.268Z,1023.49
2018-07-08T07:58:24.268Z,1023.49
2018-07-08T07:59:24.275Z,1023.5
2018-07-08T08:00:24.186Z,1023.48
2018-07-08T08:01:24.193Z,1023.47
2018-07-08T08:02:24.302Z,1023.44
2018-07-08T08:03:24.328Z,1023.45
2018-07-08T08:04:24.312Z,1023.45
2018-07-08T08:05:24.116Z,1023.45
2018-07-08T08:06:24.224Z,1023.45
2018-07-08T08:07:24.131Z,1023.4
2018-07-08T08:08:24.390Z,1023.44
2018-07-08T08:09:24.242Z,1023.37
2018-07-08T08:10:24.090Z,1023.43
2018-07-08T08:11:24.157Z,1023.38
2018-07-08T08:12:24.267Z,1023.37
2018-07-08T08:13:24.271Z,1023.4
2018-07-08T08:14:24.298Z,1023.39
2018-07-08T08:15:24.288Z,1023.37
2018-07-08T08:16:24.313Z,1023.43
2018-07-08T08:17:24.207Z,1023.37
2018-07-08T08:18:24.319Z,1023.36
2018-07-08T08:19:24.218Z,1023.36
2018-07-08T08:20:24.113Z,1023.38
2018-07-08T08:21:24.099Z,1023.36
2018-07-08T08:22:24.254Z,1023.37
2018-07-08T08:23:24.242Z,1023.37
2018-07-08T08:24:24.107Z,1023.36
2018-07-08T08:25:24.149Z,1023.38
2018-07-08T08:26:24.488Z,1023.38
2018-07-08T08:27:24.191Z,1023.41
2018-07-08T08:28:24.088Z,1023.42
2018-07-08T08:29:24.132Z,1023.39
2018-07-08T08:30:24.156Z,1023.36
2018-07-08T08:31:24.202Z,1023.41
2018-07-08T08:32:24.441Z,1023.41
2018-07-08T08:33:24.122Z,1023.42
2018-07-08T08:34:24.093Z,1023.42
2018-07-08T08:35:24.219Z,1023.42
2018-07-08T08:36:24.201Z,1023.4
2018-07-08T08:37:24.343Z,1023.38
2018-07-08T08:38:24.192Z,1023.43
2018-07-08T08:39:24.358Z,1023.36
2018-07-08T08:40:24.114Z,1023.38
2018-07-08T08:41:24.087Z,1023.38
2018-07-08T08:42:24.268Z,1023.44
2018-07-08T08:43:24.089Z,1023.44
2018-07-08T08:44:24.286Z,1023.42
2018-07-08T08:45:24.104Z,1023.38
2018-07-08T08:46:24.167Z,1023.38
2018-07-08T08:47:24.118Z,1023.41
2018-07-08T08:48:24.207Z,1023.37
2018-07-08T08:49:24.083Z,1023.37
2018-07-08T08:50:24.228Z,1023.35
2018-07-08T08:51:24.112Z,1023.39
2018-07-08T08:52:24.163Z,1023.38
2018-07-08T08:53:24.111Z,1023.36
2018-07-08T08:54:24.125Z,1023.34
2018-07-08T08:55:24.515Z,1023.34
2018-07-08T08:56:24.282Z,1023.36
2018-07-08T08:57:24.505Z,1023.44
2018-07-08T08:58:24.158Z,1023.46
2018-07-08T08:59:24.247Z,1023.46
2018-07-08T09:00:24.096Z,1023.4
2018-07-08T09:01:24.110Z,1023.46
2018-07-08T09:02:24.215Z,1023.45
2018-07-08T09:03:24.189Z,1023.49
2018-07-08T09:04:24.079Z,1023.48
2018-07-08T09:05:24.132Z,1023.46
2018-07-08T09:06:24.095Z,1023.46
2018-07-08T09:07:24.064Z,1023.43
2018-07-08T09:08:24.128Z,1023.41
2018-07-08T09:09:24.132Z,1023.43
2018-07-08T09:10:24.084Z,1023.46
2018-07-08T09:11:24.098Z,1023.42
2018-07-08T09:12:24.146Z,1023.4
2018-07-08T09:13:24.065Z,1023.44
2018-07-08T09:14:24.094Z,1023.44
2018-07-08T09:15:24.100Z,1023.43
2018-07-08T09:16:24.241Z,1023.43
2018-07-08T09:17:24.232Z,1023.45
2018-07-08T09:18:24.214Z,1023.41
2018-07-08T09:19:24.081Z,1023.4
2018-07-08T09:20:24.159Z,1023.38
2018-07-08T09:21:24.126Z,1023.35
2018-07-08T09:22:24.117Z,1023.37
2018-07-08T09:23:24.169Z,1023.37
2018-07-08T09:24:24.149Z,1023.39
2018-07-08T09:25:24.073Z,1023.41
2018-07-08T09:26:24.175Z,1023.44
2018-07-08T09:27:24.087Z,1023.4
2018-07-08T09:28:24.114Z,1023.39
2018-07-08T09:29:24.331Z,1023.43
2018-07-08T09:30:24.081Z,1023.38
2018-07-08T09:31:24.065Z,1023.34
2018-07-08T09:32:24.123Z,1023.39
2018-07-08T09:33:24.097Z,1023.42
2018-07-08T09:34:24.140Z,1023.41
2018-07-08T09:35:24.103Z,1023.42
2018-07-08T09:36:24.164Z,1023.37
2018-07-08T09:37:24.056Z,1023.35
2018-07-08T09:38:24.092Z,1023.4
2018-07-08T09:39:24.260Z,1023.39
2018-07-08T09:40:24.076Z,1023.29
2018-07-08T09:41:24.305Z,1023.36
2018-07-08T09:42:24.093Z,1023.37
2018-07-08T09:43:24.073Z,1023.33
2018-07-08T09:44:24.080Z,1023.26
2018-07-08T09:45:24.074Z,1023.28
2018-07-08T09:46:24.094Z,1023.33
2018-07-08T09:47:24.098Z,1023.36
2018-07-08T09:48:24.789Z,1023.4
2018-07-08T09:49:24.082Z,1023.34
2018-07-08T09:50:24.223Z,1023.37
2018-07-08T09:51:24.053Z,1023.33
2018-07-08T09:52:24.105Z,1023.34
2018-07-08T09:53:24.670Z,1023.36
2018-07-08T09:54:24.268Z,1023.31
2018-07-08T09:55:24.540Z,1023.28
2018-07-08T09:56:24.386Z,1023.32
2018-07-08T09:57:24.067Z,1023.3
2018-07-08T09:58:24.101Z,1023.29
2018-07-08T09:59:24.086Z,1023.25
2018-07-08T10:00:24.208Z,1023.29
2018-07-08T10:01:24.088Z,1023.26
2018-07-08T10:02:24.121Z,1023.25
2018-07-08T10:03:24.069Z,1023.31
2018-07-08T10:04:24.067Z,1023.33
2018-07-08T10:05:24.062Z,1023.32
2018-07-08T10:06:24.088Z,1023.35
2018-07-08T10:07:24.072Z,1023.3
2018-07-08T10:08:24.078Z,1023.31
2018-07-08T10:09:24.070Z,1023.3
2018-07-08T10:10:24.433Z,1023.35
2018-07-08T10:11:24.317Z,1023.32
2018-07-08T10:12:24.101Z,1023.3
2018-07-08T10:13:24.061Z,1023.27
2018-07-08T10:14:24.090Z,1023.28
2018-07-08T10:15:24.054Z,1023.31
2018-07-08T10:16:24.475Z,1023.27
2018-07-08T10:17:24.227Z,1023.3
2018-07-08T10:18:24.116Z,1023.31
2018-07-08T10:19:24.292Z,1023.26
2018-07-08T10:20:24.330Z,1023.25
2018-07-08T10:21:24.204Z,1023.21
2018-07-08T10:22:24.210Z,1023.28
2018-07-08T10:23:24.208Z,1023.32
2018-07-08T10:24:24.113Z,1023.3
2018-07-08T10:25:24.544Z,1023.26
2018-07-08T10:26:24.089Z,1023.28
2018-07-08T10:27:24.130Z,1023.18
2018-07-08T10:28:24.150Z,1023.12
2018-07-08T10:29:24.123Z,1023.19
2018-07-08T10:30:24.268Z,1023.15
2018-07-08T10:31:24.163Z,1023.19
2018-07-08T10:32:24.147Z,1023.15
2018-07-08T10:33:24.059Z,1023.14
2018-07-08T10:34:24.122Z,1023.18
2018-07-08T10:35:24.137Z,1023.2
2018-07-08T10:36:24.112Z,1023.11
2018-07-08T10:37:24.153Z,1023.12
2018-07-08T10:38:25.254Z,1023.2
2018-07-08T10:39:24.068Z,1023.14
2018-07-08T10:40:24.065Z,1023.18
2018-07-08T10:41:24.055Z,1023.13
2018-07-08T10:42:24.074Z,1023.16
2018-07-08T10:43:25.332Z,1023.16
2018-07-08T10:44:24.108Z,1023.16
2018-07-08T10:45:24.063Z,1023.19
2018-07-08T10:46:24.046Z,1023.17
2018-07-08T10:47:24.035Z,1023.2
2018-07-08T10:48:24.060Z,1023.17
2018-07-08T10:49:24.057Z,1023.16
2018-07-08T10:50:24.230Z,1023.19
2018-07-08T10:51:24.461Z,1023.14
2018-07-08T10:52:24.475Z,1023.15
2018-07-08T10:53:24.066Z,1023.06
2018-07-08T10:54:24.060Z,1023.04
2018-07-08T10:55:24.413Z,1023.05
2018-07-08T10:56:24.058Z,1022.99
2018-07-08T10:57:24.038Z,1023.06
2018-07-08T10:58:24.063Z,1022.99
2018-07-08T10:59:24.192Z,1022.97
2018-07-08T11:00:24.233Z,1022.95
2018-07-08T11:01:24.046Z,1022.98
2018-07-08T11:02:24.296Z,1022.95
2018-07-08T11:03:24.046Z,1022.89
2018-07-08T11:04:24.197Z,1022.89
2018-07-08T11:05:24.060Z,1022.97
2018-07-08T11:06:24.154Z,1022.95
2018-07-08T11:07:24.045Z,1022.98
2018-07-08T11:08:24.275Z,1022.88
2018-07-08T11:09:24.137Z,1022.9
2018-07-08T11:10:24.204Z,1022.85
2018-07-08T11:11:24.120Z,1022.83
2018-07-08T11:12:24.129Z,1022.81
2018-07-08T11:13:24.079Z,1022.79
2018-07-08T11:14:24.070Z,1022.78
2018-07-08T11:15:24.521Z,1022.74
2018-07-08T11:16:24.097Z,1022.73
2018-07-08T11:17:24.068Z,1022.78
2018-07-08T11:18:24.076Z,1022.76
2018-07-08T11:19:24.043Z,1022.73
2018-07-08T11:20:24.066Z,1022.7
2018-07-08T11:21:24.076Z,1022.74
2018-07-08T11:22:24.149Z,1022.75
2018-07-08T11:23:24.290Z,1022.7
2018-07-08T11:24:24.051Z,1022.8
2018-07-08T11:25:24.203Z,1022.74
2018-07-08T11:26:24.103Z,1022.75
2018-07-08T11:27:24.216Z,1022.65
2018-07-08T11:28:24.085Z,1022.66
2018-07-08T11:29:24.093Z,1022.68
2018-07-08T11:30:24.058Z,1022.7
2018-07-08T11:31:24.094Z,1022.67
2018-07-08T11:32:24.113Z,1022.65
2018-07-08T11:33:24.067Z,1022.67
2018-07-08T11:34:24.640Z,1022.64
2018-07-08T11:35:25.134Z,1022.66
2018-07-08T11:36:24.120Z,1022.66
2018-07-08T11:37:24.078Z,1022.68
2018-07-08T11:38:24.806Z,1022.72
2018-07-08T11:39:24.015Z,1022.69
2018-07-08T11:40:26.516Z,1022.66
2018-07-08T11:41:24.037Z,1022.61
2018-07-08T11:42:24.086Z,1022.61
2018-07-08T11:43:25.002Z,1022.6
2018-07-08T11:44:25.349Z,1022.63
2018-07-08T11:45:24.037Z,1022.67
2018-07-08T11:46:24.044Z,1022.62
2018-07-08T11:47:24.432Z,1022.59
2018-07-08T11:48:24.209Z,1022.6
2018-07-08T11:49:24.146Z,1022.65
2018-07-08T11:50:24.222Z,1022.59
2018-07-08T11:51:24.041Z,1022.6
2018-07-08T11:52:24.213Z,1022.5
2018-07-08T11:53:24.101Z,1022.54
2018-07-08T11:54:24.076Z,1022.54
2018-07-08T11:55:24.290Z,1022.57
2018-07-08T11:56:24.046Z,1022.54
2018-07-08T11:57:24.043Z,1022.51
2018-07-08T11:58:24.055Z,1022.52
2018-07-08T11:59:24.053Z,1022.61
2018-07-08T12:00:24.031Z,1022.57
2018-07-08T12:01:24.047Z,1022.5
2018-07-08T12:02:24.029Z,1022.57
2018-07-08T12:03:24.051Z,1022.65
2018-07-08T12:04:24.045Z,1022.63
2018-07-08T12:05:24.055Z,1022.68
2018-07-08T12:06:24.199Z,1022.68
2018-07-08T12:07:24.074Z,1022.66
2018-07-08T12:08:24.158Z,1022.61